sensor_id;sensor_type;location;lat;lon;timestamp;pressure;altitude;pressure_sealevel;temperature;humidity
59289;BME280;45056;47.602;9.886;2023-07-13T00:01:06;93063.75;;;19.17;66.33
59289;BME280;45056;47.602;9.886;2023-07-13T00:03:34;93068.53;;;19.16;66.14
59289;BME280;45056;47.602;9.886;2023-07-13T00:06:02;93067.03;;;19.15;66.03
59289;BME280;45056;47.602;9.886;2023-07-13T00:08:31;93063.03;;;19.16;66.10
59289;BME280;45056;47.602;9.886;2023-07-13T00:11:01;93056.00;;;19.15;66.15
59289;BME280;45056;47.602;9.886;2023-07-13T00:13:31;93062.25;;;19.16;65.41
59289;BME280;45056;47.602;9.886;2023-07-13T00:15:59;93061.50;;;19.15;65.20
59289;BME280;45056;47.602;9.886;2023-07-13T00:18:27;93052.47;;;19.15;64.55
59289;BME280;45056;47.602;9.886;2023-07-13T00:20:56;93052.97;;;19.13;64.11
59289;BME280;45056;47.602;9.886;2023-07-13T00:23:31;93048.72;;;19.12;63.95
59289;BME280;45056;47.602;9.886;2023-07-13T00:26:00;93047.69;;;19.10;63.67
59289;BME280;45056;47.602;9.886;2023-07-13T00:28:28;93055.47;;;19.11;63.89
59289;BME280;45056;47.602;9.886;2023-07-13T00:30:57;93061.75;;;19.12;64.17
59289;BME280;45056;47.602;9.886;2023-07-13T00:33:27;93074.28;;;19.13;64.45
59289;BME280;45056;47.602;9.886;2023-07-13T00:35:56;93070.78;;;19.12;64.66
59289;BME280;45056;47.602;9.886;2023-07-13T00:38:24;93067.25;;;19.12;64.69
59289;BME280;45056;47.602;9.886;2023-07-13T00:40:52;93067.00;;;19.10;64.86
59289;BME280;45056;47.602;9.886;2023-07-13T00:43:23;93063.25;;;19.07;64.90
59289;BME280;45056;47.602;9.886;2023-07-13T00:46:16;93052.69;;;19.06;65.32
59289;BME280;45056;47.602;9.886;2023-07-13T00:48:49;93066.22;;;19.03;65.55
59289;BME280;45056;47.602;9.886;2023-07-13T00:51:23;93062.44;;;19.01;65.65
59289;BME280;45056;47.602;9.886;2023-07-13T00:53:59;93064.94;;;18.99;65.41
59289;BME280;45056;47.602;9.886;2023-07-13T00:56:33;93074.44;;;18.98;65.69
59289;BME280;45056;47.602;9.886;2023-07-13T00:59:03;93068.47;;;18.99;65.85
59289;BME280;45056;47.602;9.886;2023-07-13T01:01:35;93067.69;;;18.99;65.71
59289;BME280;45056;47.602;9.886;2023-07-13T01:04:03;93071.69;;;18.98;65.92
59289;BME280;45056;47.602;9.886;2023-07-13T01:06:34;93075.47;;;19.00;66.07
59289;BME280;45056;47.602;9.886;2023-07-13T01:09:06;93082.97;;;19.00;65.80
59289;BME280;45056;47.602;9.886;2023-07-13T01:11:36;93073.19;;;18.99;65.95
59289;BME280;45056;47.602;9.886;2023-07-13T01:14:04;93076.44;;;18.97;66.00
59289;BME280;45056;47.602;9.886;2023-07-13T01:16:36;93081.19;;;18.97;66.18
59289;BME280;45056;47.602;9.886;2023-07-13T01:19:15;93080.94;;;18.95;66.15
59289;BME280;45056;47.602;9.886;2023-07-13T01:21:53;93073.91;;;18.94;66.05
59289;BME280;45056;47.602;9.886;2023-07-13T01:24:21;93061.38;;;18.93;66.24
59289;BME280;45056;47.602;9.886;2023-07-13T01:26:49;93067.66;;;18.93;66.43
59289;BME280;45056;47.602;9.886;2023-07-13T01:29:17;93070.66;;;18.95;66.50
59289;BME280;45056;47.602;9.886;2023-07-13T01:31:45;93069.16;;;18.94;66.69
59289;BME280;45056;47.602;9.886;2023-07-13T01:34:13;93064.91;;;18.93;66.62
59289;BME280;45056;47.602;9.886;2023-07-13T01:36:41;93056.84;;;18.89;66.88
59289;BME280;45056;47.602;9.886;2023-07-13T01:39:10;93056.81;;;18.84;67.16
59289;BME280;45056;47.602;9.886;2023-07-13T01:41:38;93056.78;;;18.78;67.44
59289;BME280;45056;47.602;9.886;2023-07-13T01:44:06;93060.53;;;18.75;67.68
59289;BME280;45056;47.602;9.886;2023-07-13T01:46:34;93067.28;;;18.74;67.89
59289;BME280;45056;47.602;9.886;2023-07-13T01:49:02;93071.78;;;18.71;68.33
59289;BME280;45056;47.602;9.886;2023-07-13T01:51:30;93069.50;;;18.70;68.53
59289;BME280;45056;47.602;9.886;2023-07-13T01:53:58;93075.25;;;18.66;68.98
59289;BME280;45056;47.602;9.886;2023-07-13T01:56:28;93072.97;;;18.65;69.20
59289;BME280;45056;47.602;9.886;2023-07-13T01:58:56;93066.22;;;18.66;69.28
59289;BME280;45056;47.602;9.886;2023-07-13T02:01:24;93063.72;;;18.62;69.20
59289;BME280;45056;47.602;9.886;2023-07-13T02:03:52;93064.19;;;18.60;69.43
59289;BME280;45056;47.602;9.886;2023-07-13T02:06:20;93063.66;;;18.56;69.43
59289;BME280;45056;47.602;9.886;2023-07-13T02:08:48;93057.88;;;18.54;69.25
59289;BME280;45056;47.602;9.886;2023-07-13T02:11:16;93063.63;;;18.51;69.12
59289;BME280;45056;47.602;9.886;2023-07-13T02:13:46;93059.34;;;18.50;69.25
59289;BME280;45056;47.602;9.886;2023-07-13T02:16:14;93067.84;;;18.46;69.21
59289;BME280;45056;47.602;9.886;2023-07-13T02:18:42;93064.84;;;18.44;69.23
59289;BME280;45056;47.602;9.886;2023-07-13T02:21:10;93056.56;;;18.44;69.07
59289;BME280;45056;47.602;9.886;2023-07-13T02:23:37;93047.06;;;18.45;69.03
59289;BME280;45056;47.602;9.886;2023-07-13T02:26:05;93036.31;;;18.47;69.13
59289;BME280;45056;47.602;9.886;2023-07-13T02:28:33;93029.56;;;18.48;69.07
59289;BME280;45056;47.602;9.886;2023-07-13T02:31:07;93031.06;;;18.49;68.83
59289;BME280;45056;47.602;9.886;2023-07-13T02:33:36;93023.06;;;18.51;68.96
59289;BME280;45056;47.602;9.886;2023-07-13T02:36:04;93028.31;;;18.49;68.93
59289;BME280;45056;47.602;9.886;2023-07-13T02:38:34;93029.56;;;18.48;69.14
59289;BME280;45056;47.602;9.886;2023-07-13T02:41:03;93033.56;;;18.47;69.19
59289;BME280;45056;47.602;9.886;2023-07-13T02:43:31;93032.78;;;18.46;69.02
59289;BME280;45056;47.602;9.886;2023-07-13T02:46:00;93037.81;;;18.48;69.10
59289;BME280;45056;47.602;9.886;2023-07-13T02:48:35;93036.56;;;18.49;69.12
59289;BME280;45056;47.602;9.886;2023-07-13T02:51:04;93037.31;;;18.50;69.18
59289;BME280;45056;47.602;9.886;2023-07-13T02:53:34;93046.56;;;18.46;69.20
59289;BME280;45056;47.602;9.886;2023-07-13T02:56:04;93048.56;;;18.46;69.45
59289;BME280;45056;47.602;9.886;2023-07-13T02:58:32;93045.06;;;18.45;69.43
59289;BME280;45056;47.602;9.886;2023-07-13T03:01:06;93062.81;;;18.44;69.22
59289;BME280;45056;47.602;9.886;2023-07-13T03:03:37;93058.09;;;18.45;69.08
59289;BME280;45056;47.602;9.886;2023-07-13T03:06:05;93063.09;;;18.46;68.87
59289;BME280;45056;47.602;9.886;2023-07-13T03:08:34;93059.84;;;18.48;68.93
59289;BME280;45056;47.602;9.886;2023-07-13T03:11:05;93072.38;;;18.49;68.89
59289;BME280;45056;47.602;9.886;2023-07-13T03:13:34;93067.88;;;18.52;68.74
59289;BME280;45056;47.602;9.886;2023-07-13T03:16:03;93056.66;;;18.55;68.68
59289;BME280;45056;47.602;9.886;2023-07-13T03:18:32;93069.16;;;18.56;68.64
59289;BME280;45056;47.602;9.886;2023-07-13T03:21:03;93065.16;;;18.57;68.48
59289;BME280;45056;47.602;9.886;2023-07-13T03:23:31;93073.69;;;18.59;68.47
59289;BME280;45056;47.602;9.886;2023-07-13T03:26:04;93070.47;;;18.61;68.50
59289;BME280;45056;47.602;9.886;2023-07-13T03:28:34;93062.94;;;18.62;68.06
59289;BME280;45056;47.602;9.886;2023-07-13T03:31:04;93065.69;;;18.62;68.11
59289;BME280;45056;47.602;9.886;2023-07-13T03:33:34;93067.97;;;18.63;67.94
59289;BME280;45056;47.602;9.886;2023-07-13T03:36:06;93075.00;;;18.64;67.95
59289;BME280;45056;47.602;9.886;2023-07-13T03:38:34;93075.72;;;18.65;67.82
59289;BME280;45056;47.602;9.886;2023-07-13T03:41:02;93082.75;;;18.66;67.67
59289;BME280;45056;47.602;9.886;2023-07-13T03:43:30;93085.03;;;18.67;67.71
59289;BME280;45056;47.602;9.886;2023-07-13T03:45:58;93077.50;;;18.68;67.80
59289;BME280;45056;47.602;9.886;2023-07-13T03:48:26;93079.28;;;18.71;67.68
59289;BME280;45056;47.602;9.886;2023-07-13T03:50:54;93093.34;;;18.73;67.76
59289;BME280;45056;47.602;9.886;2023-07-13T03:53:24;93084.56;;;18.74;67.63
59289;BME280;45056;47.602;9.886;2023-07-13T03:55:52;93084.81;;;18.77;67.57
59289;BME280;45056;47.602;9.886;2023-07-13T03:58:27;93087.59;;;18.77;67.63
59289;BME280;45056;47.602;9.886;2023-07-13T04:00:59;93091.09;;;18.77;67.32
59289;BME280;45056;47.602;9.886;2023-07-13T04:03:29;93098.13;;;18.78;67.44
59289;BME280;45056;47.602;9.886;2023-07-13T04:06:00;93094.59;;;18.78;67.32
59289;BME280;45056;47.602;9.886;2023-07-13T04:08:31;93102.41;;;18.79;67.23
59289;BME280;45056;47.602;9.886;2023-07-13T04:11:03;93090.13;;;18.80;67.44
59289;BME280;45056;47.602;9.886;2023-07-13T04:13:32;93092.38;;;18.82;67.27
59289;BME280;45056;47.602;9.886;2023-07-13T04:16:00;93088.88;;;18.81;67.25
59289;BME280;45056;47.602;9.886;2023-07-13T04:18:28;93092.88;;;18.80;66.94
59289;BME280;45056;47.602;9.886;2023-07-13T04:20:56;93092.38;;;18.82;66.86
59289;BME280;45056;47.602;9.886;2023-07-13T04:23:24;93102.91;;;18.83;67.15
59289;BME280;45056;47.602;9.886;2023-07-13T04:25:53;93097.66;;;18.85;67.12
59289;BME280;45056;47.602;9.886;2023-07-13T04:28:23;93102.69;;;18.87;67.13
59289;BME280;45056;47.602;9.886;2023-07-13T04:30:54;93099.44;;;18.88;67.13
59289;BME280;45056;47.602;9.886;2023-07-13T04:33:22;93106.97;;;18.88;66.84
59289;BME280;45056;47.602;9.886;2023-07-13T04:35:51;93097.16;;;18.87;66.74
59289;BME280;45056;47.602;9.886;2023-07-13T04:38:24;93094.16;;;18.85;67.11
59289;BME280;45056;47.602;9.886;2023-07-13T04:40:57;93099.19;;;18.86;67.15
59289;BME280;45056;47.602;9.886;2023-07-13T04:43:29;93093.94;;;18.88;67.26
59289;BME280;45056;47.602;9.886;2023-07-13T04:46:03;93104.94;;;18.88;67.17
59289;BME280;45056;47.602;9.886;2023-07-13T04:48:32;93102.97;;;18.89;66.71
59289;BME280;45056;47.602;9.886;2023-07-13T04:51:01;93105.22;;;18.91;66.92
59289;BME280;45056;47.602;9.886;2023-07-13T04:53:30;93106.72;;;18.92;66.69
59289;BME280;45056;47.602;9.886;2023-07-13T04:56:00;93105.47;;;18.93;66.98
59289;BME280;45056;47.602;9.886;2023-07-13T04:58:28;93105.47;;;18.93;67.13
59289;BME280;45056;47.602;9.886;2023-07-13T05:00:59;93104.22;;;18.94;67.04
59289;BME280;45056;47.602;9.886;2023-07-13T05:03:28;93095.19;;;18.87;67.63
59289;BME280;45056;47.602;9.886;2023-07-13T05:05:58;93101.63;;;18.79;67.82
59289;BME280;45056;47.602;9.886;2023-07-13T05:08:27;93105.09;;;18.73;68.49
59289;BME280;45056;47.602;9.886;2023-07-13T05:10:55;93116.91;;;18.74;68.69
59289;BME280;45056;47.602;9.886;2023-07-13T05:13:25;93126.41;;;18.73;68.92
59289;BME280;45056;47.602;9.886;2023-07-13T05:15:58;93117.84;;;18.71;69.10
59289;BME280;45056;47.602;9.886;2023-07-13T05:18:27;93117.84;;;18.65;69.14
59289;BME280;45056;47.602;9.886;2023-07-13T05:21:01;93123.28;;;18.59;69.44
59289;BME280;45056;47.602;9.886;2023-07-13T05:23:32;93128.75;;;18.54;69.65
59289;BME280;45056;47.602;9.886;2023-07-13T05:26:02;93129.25;;;18.52;70.01
59289;BME280;45056;47.602;9.886;2023-07-13T05:28:32;93126.00;;;18.54;70.14
59289;BME280;45056;47.602;9.886;2023-07-13T05:31:01;93138.06;;;18.56;70.17
59289;BME280;45056;47.602;9.886;2023-07-13T05:33:29;93135.09;;;18.60;70.13
59289;BME280;45056;47.602;9.886;2023-07-13T05:35:57;93135.81;;;18.60;70.24
59289;BME280;45056;47.602;9.886;2023-07-13T05:38:27;93136.59;;;18.61;69.75
59289;BME280;45056;47.602;9.886;2023-07-13T05:40:57;93137.84;;;18.60;69.22
59289;BME280;45056;47.602;9.886;2023-07-13T05:43:25;93134.81;;;18.58;68.65
59289;BME280;45056;47.602;9.886;2023-07-13T05:45:56;93152.09;;;18.58;68.41
59289;BME280;45056;47.602;9.886;2023-07-13T05:48:24;93153.34;;;18.57;68.01
59289;BME280;45056;47.602;9.886;2023-07-13T05:50:53;93157.34;;;18.56;67.94
59289;BME280;45056;47.602;9.886;2023-07-13T05:53:21;93157.81;;;18.55;67.38
59289;BME280;45056;47.602;9.886;2023-07-13T05:55:49;93158.59;;;18.55;67.39
59289;BME280;45056;47.602;9.886;2023-07-13T05:58:19;93155.06;;;18.55;66.86
59289;BME280;45056;47.602;9.886;2023-07-13T06:00:48;93161.81;;;18.54;66.69
59289;BME280;45056;47.602;9.886;2023-07-13T06:03:17;93157.53;;;18.53;66.69
59289;BME280;45056;47.602;9.886;2023-07-13T06:05:45;93166.31;;;18.51;66.62
59289;BME280;45056;47.602;9.886;2023-07-13T06:08:13;93174.06;;;18.53;66.67
59289;BME280;45056;47.602;9.886;2023-07-13T06:10:41;93169.06;;;18.51;66.64
59289;BME280;45056;47.602;9.886;2023-07-13T06:13:10;93175.06;;;18.50;66.65
59289;BME280;45056;47.602;9.886;2023-07-13T06:15:38;93175.06;;;18.50;66.55
59289;BME280;45056;47.602;9.886;2023-07-13T06:18:06;93177.34;;;18.51;66.53
59289;BME280;45056;47.602;9.886;2023-07-13T06:20:36;93174.59;;;18.51;66.29
59289;BME280;45056;47.602;9.886;2023-07-13T06:23:04;93179.06;;;18.49;66.17
59289;BME280;45056;47.602;9.886;2023-07-13T06:25:32;93177.06;;;18.49;66.50
59289;BME280;45056;47.602;9.886;2023-07-13T06:28:00;93176.28;;;18.49;66.47
59289;BME280;45056;47.602;9.886;2023-07-13T06:30:28;93184.56;;;18.49;66.25
59289;BME280;45056;47.602;9.886;2023-07-13T06:32:58;93182.31;;;18.47;66.06
59289;BME280;45056;47.602;9.886;2023-07-13T06:35:26;93195.06;;;18.44;66.38
59289;BME280;45056;47.602;9.886;2023-07-13T06:37:55;93199.31;;;18.45;66.75
59289;BME280;45056;47.602;9.886;2023-07-13T06:40:23;93194.84;;;18.48;66.83
59289;BME280;45056;47.602;9.886;2023-07-13T06:42:51;93189.59;;;18.50;66.93
59289;BME280;45056;47.602;9.886;2023-07-13T06:45:19;93201.63;;;18.53;67.14
59289;BME280;45056;47.602;9.886;2023-07-13T06:47:47;93206.16;;;18.56;67.07
59289;BME280;45056;47.602;9.886;2023-07-13T06:50:16;93204.44;;;18.58;67.07
59289;BME280;45056;47.602;9.886;2023-07-13T06:52:44;93217.75;;;18.60;66.42
59289;BME280;45056;47.602;9.886;2023-07-13T06:55:13;93214.50;;;18.62;66.10
59289;BME280;45056;47.602;9.886;2023-07-13T06:57:41;93214.50;;;18.62;66.15
59289;BME280;45056;47.602;9.886;2023-07-13T07:00:11;93207.72;;;18.63;66.10
59289;BME280;45056;47.602;9.886;2023-07-13T07:02:39;93222.28;;;18.63;65.96
59289;BME280;45056;47.602;9.886;2023-07-13T07:05:07;93223.53;;;18.62;66.21
59289;BME280;45056;47.602;9.886;2023-07-13T07:07:35;93232.53;;;18.63;65.87
59289;BME280;45056;47.602;9.886;2023-07-13T07:10:04;93231.78;;;18.62;65.91
59289;BME280;45056;47.602;9.886;2023-07-13T07:12:34;93239.56;;;18.64;65.53
59289;BME280;45056;47.602;9.886;2023-07-13T07:15:03;93231.78;;;18.62;65.36
59289;BME280;45056;47.602;9.886;2023-07-13T07:17:32;93235.03;;;18.60;65.93
59289;BME280;45056;47.602;9.886;2023-07-13T07:20:00;93231.72;;;18.56;66.30
59289;BME280;45056;47.602;9.886;2023-07-13T07:22:28;93227.19;;;18.53;66.43
59289;BME280;45056;47.602;9.886;2023-07-13T07:24:57;93242.47;;;18.54;66.41
59289;BME280;45056;47.602;9.886;2023-07-13T07:27:25;93242.28;;;18.58;66.59
59289;BME280;45056;47.602;9.886;2023-07-13T07:29:55;93238.28;;;18.59;66.61
59289;BME280;45056;47.602;9.886;2023-07-13T07:32:24;93234.47;;;18.56;67.04
59289;BME280;45056;47.602;9.886;2023-07-13T07:34:52;93231.94;;;18.53;67.02
59289;BME280;45056;47.602;9.886;2023-07-13T07:37:20;93236.97;;;18.54;67.37
59289;BME280;45056;47.602;9.886;2023-07-13T07:39:48;93237.72;;;18.55;67.47
59289;BME280;45056;47.602;9.886;2023-07-13T07:42:16;93240.47;;;18.55;67.13
59289;BME280;45056;47.602;9.886;2023-07-13T07:44:44;93244.72;;;18.56;66.88
59289;BME280;45056;47.602;9.886;2023-07-13T07:47:13;93248.25;;;18.56;67.07
59289;BME280;45056;47.602;9.886;2023-07-13T07:49:41;93247.50;;;18.56;67.19
59289;BME280;45056;47.602;9.886;2023-07-13T07:52:10;93250.53;;;18.58;67.21
59289;BME280;45056;47.602;9.886;2023-07-13T07:54:38;93250.81;;;18.60;67.03
59289;BME280;45056;47.602;9.886;2023-07-13T07:57:06;93253.06;;;18.62;66.63
59289;BME280;45056;47.602;9.886;2023-07-13T07:59:36;93251.56;;;18.60;65.64
59289;BME280;45056;47.602;9.886;2023-07-13T08:02:05;93252.06;;;18.59;65.39
59289;BME280;45056;47.602;9.886;2023-07-13T08:04:35;93248.25;;;18.56;65.44
59289;BME280;45056;47.602;9.886;2023-07-13T08:07:03;93255.75;;;18.56;65.55
59289;BME280;45056;47.602;9.886;2023-07-13T08:09:32;93254.03;;;18.58;65.59
59289;BME280;45056;47.602;9.886;2023-07-13T08:12:00;93253.84;;;18.62;65.82
59289;BME280;45056;47.602;9.886;2023-07-13T08:14:28;93256.63;;;18.68;65.99
59289;BME280;45056;47.602;9.886;2023-07-13T08:16:56;93257.94;;;18.72;66.28
59289;BME280;45056;47.602;9.886;2023-07-13T08:19:24;93255.72;;;18.77;66.48
59289;BME280;45056;47.602;9.886;2023-07-13T08:21:53;93251.44;;;18.75;66.32
59289;BME280;45056;47.602;9.886;2023-07-13T08:24:22;93255.44;;;18.74;66.61
59289;BME280;45056;47.602;9.886;2023-07-13T08:26:51;93249.19;;;18.74;66.11
59289;BME280;45056;47.602;9.886;2023-07-13T08:29:20;93252.41;;;18.72;66.07
59289;BME280;45056;47.602;9.886;2023-07-13T08:31:48;93251.66;;;18.72;66.37
59289;BME280;45056;47.602;9.886;2023-07-13T08:34:16;93250.63;;;18.69;66.53
59289;BME280;45056;47.602;9.886;2023-07-13T08:36:44;93241.84;;;18.65;66.73
59289;BME280;45056;47.602;9.886;2023-07-13T08:39:13;93238.03;;;18.63;66.79
59289;BME280;45056;47.602;9.886;2023-07-13T08:41:41;93245.06;;;18.64;66.80
59289;BME280;45056;47.602;9.886;2023-07-13T08:44:22;93245.84;;;18.64;66.74
59289;BME280;45056;47.602;9.886;2023-07-13T08:47:04;93245.56;;;18.62;66.52
59289;BME280;45056;47.602;9.886;2023-07-13T08:49:34;93252.59;;;18.63;66.58
59289;BME280;45056;47.602;9.886;2023-07-13T08:52:10;93245.84;;;18.64;66.53
59289;BME280;45056;47.602;9.886;2023-07-13T08:54:51;93253.59;;;18.66;65.61
59289;BME280;45056;47.602;9.886;2023-07-13T08:57:29;93251.63;;;18.66;65.33
59289;BME280;45056;47.602;9.886;2023-07-13T09:00:00;93254.13;;;18.70;65.25
59289;BME280;45056;47.602;9.886;2023-07-13T09:02:42;93257.66;;;18.70;64.96
59289;BME280;45056;47.602;9.886;2023-07-13T09:05:18;93257.66;;;18.70;64.44
59289;BME280;45056;47.602;9.886;2023-07-13T09:08:08;93277.69;;;18.71;64.39
59289;BME280;45056;47.602;9.886;2023-07-13T09:10:58;93270.94;;;18.72;64.38
59289;BME280;45056;47.602;9.886;2023-07-13T09:13:47;93274.47;;;18.72;63.91
59289;BME280;45056;47.602;9.886;2023-07-13T09:16:24;93271.97;;;18.74;63.28
59289;BME280;45056;47.602;9.886;2023-07-13T09:18:58;93271.44;;;18.70;63.19
59289;BME280;45056;47.602;9.886;2023-07-13T09:21:36;93279.44;;;18.68;62.97
59289;BME280;45056;47.602;9.886;2023-07-13T09:24:28;93278.47;;;18.71;63.16
59289;BME280;45056;47.602;9.886;2023-07-13T09:27:13;93280.50;;;18.77;62.42
59289;BME280;45056;47.602;9.886;2023-07-13T09:29:49;93279.53;;;18.80;61.55
59289;BME280;45056;47.602;9.886;2023-07-13T09:32:24;93279.59;;;18.85;61.32
59289;BME280;45056;47.602;9.886;2023-07-13T09:34:54;93278.16;;;18.90;61.30
59289;BME280;45056;47.602;9.886;2023-07-13T09:37:30;93276.66;;;18.95;62.11
59289;BME280;45056;47.602;9.886;2023-07-13T09:40:02;93266.47;;;19.01;62.16
59289;BME280;45056;47.602;9.886;2023-07-13T09:42:33;93268.03;;;19.08;62.12
59289;BME280;45056;47.602;9.886;2023-07-13T09:45:02;93278.13;;;19.16;62.70
59289;BME280;45056;47.602;9.886;2023-07-13T09:47:39;93272.16;;;19.24;61.82
59289;BME280;45056;47.602;9.886;2023-07-13T09:50:14;93266.44;;;19.27;62.17
59289;BME280;45056;47.602;9.886;2023-07-13T09:52:46;93276.75;;;19.32;62.66
59289;BME280;45056;47.602;9.886;2023-07-13T09:55:27;93274.28;;;19.40;62.72
59289;BME280;45056;47.602;9.886;2023-07-13T09:58:03;93269.56;;;19.46;62.75
59289;BME280;45056;47.602;9.886;2023-07-13T10:00:33;93276.63;;;19.53;62.94
59289;BME280;45056;47.602;9.886;2023-07-13T10:03:03;93269.66;;;19.64;62.65
59289;BME280;45056;47.602;9.886;2023-07-13T10:05:41;93276.75;;;19.70;62.38
59289;BME280;45056;47.602;9.886;2023-07-13T10:08:19;93279.97;;;19.69;61.50
59289;BME280;45056;47.602;9.886;2023-07-13T10:10:58;93274.19;;;19.67;61.30
59289;BME280;45056;47.602;9.886;2023-07-13T10:13:33;93273.16;;;19.64;61.80
59289;BME280;45056;47.602;9.886;2023-07-13T10:16:04;93267.94;;;19.66;61.24
59289;BME280;45056;47.602;9.886;2023-07-13T10:18:42;93262.41;;;19.66;60.32
59289;BME280;45056;47.602;9.886;2023-07-13T10:21:16;93264.66;;;19.68;60.07
59289;BME280;45056;47.602;9.886;2023-07-13T10:23:50;93276.50;;;19.74;60.30
59289;BME280;45056;47.602;9.886;2023-07-13T10:26:27;93273.25;;;19.75;56.76
59289;BME280;45056;47.602;9.886;2023-07-13T10:29:05;93282.31;;;19.82;55.82
59289;BME280;45056;47.602;9.886;2023-07-13T10:31:40;93284.59;;;19.89;55.85
59289;BME280;45056;47.602;9.886;2023-07-13T10:34:11;93285.69;;;19.97;56.21
59289;BME280;45056;47.602;9.886;2023-07-13T10:36:43;93285.22;;;20.04;56.02
59289;BME280;45056;47.602;9.886;2023-07-13T10:39:17;93287.25;;;20.10;55.63
59289;BME280;45056;47.602;9.886;2023-07-13T10:41:53;93280.50;;;20.16;55.91
59289;BME280;45056;47.602;9.886;2023-07-13T10:44:28;93282.03;;;20.23;55.54
59289;BME280;45056;47.602;9.886;2023-07-13T10:47:01;93286.59;;;20.32;55.38
59289;BME280;45056;47.602;9.886;2023-07-13T10:49:35;93292.66;;;20.42;55.16
59289;BME280;45056;47.602;9.886;2023-07-13T10:52:05;93290.41;;;20.52;54.91
59289;BME280;45056;47.602;9.886;2023-07-13T10:54:34;93296.97;;;20.60;54.69
59289;BME280;45056;47.602;9.886;2023-07-13T10:57:15;93300.25;;;20.64;54.14
59289;BME280;45056;47.602;9.886;2023-07-13T11:00:14;93301.75;;;20.65;54.28
59289;BME280;45056;47.602;9.886;2023-07-13T11:02:56;93304.25;;;20.63;54.48
59289;BME280;45056;47.602;9.886;2023-07-13T11:05:30;93306.28;;;20.63;54.79
59289;BME280;45056;47.602;9.886;2023-07-13T11:08:13;93302.25;;;20.64;55.32
59289;BME280;45056;47.602;9.886;2023-07-13T11:10:50;93284.69;;;20.67;55.67
59289;BME280;45056;47.602;9.886;2023-07-13T11:16:42;93293.53;;;20.82;56.80
59289;BME280;45056;47.602;9.886;2023-07-13T11:19:40;93286.75;;;20.89;57.08
59289;BME280;45056;47.602;9.886;2023-07-13T11:22:26;93286.53;;;20.93;57.24
59289;BME280;45056;47.602;9.886;2023-07-13T11:25:25;93280.97;;;20.98;57.06
59289;BME280;45056;47.602;9.886;2023-07-13T11:28:23;93285.00;;;21.03;57.02
59289;BME280;45056;47.602;9.886;2023-07-13T11:31:14;93289.03;;;21.02;57.14
59289;BME280;45056;47.602;9.886;2023-07-13T11:33:54;93285.00;;;21.03;57.02
59289;BME280;45056;47.602;9.886;2023-07-13T11:36:31;93285.25;;;21.05;57.10
59289;BME280;45056;47.602;9.886;2023-07-13T11:39:17;93281.00;;;21.10;57.38
59289;BME280;45056;47.602;9.886;2023-07-13T11:41:52;93275.44;;;21.15;57.51
59289;BME280;45056;47.602;9.886;2023-07-13T11:44:25;93272.44;;;21.25;57.40
59289;BME280;45056;47.602;9.886;2023-07-13T11:46:56;93267.66;;;21.31;57.15
59289;BME280;45056;47.602;9.886;2023-07-13T11:49:30;93267.41;;;21.40;56.79
59289;BME280;45056;47.602;9.886;2023-07-13T11:52:00;93275.69;;;21.46;56.68
59289;BME280;45056;47.602;9.886;2023-07-13T11:54:30;93260.09;;;21.54;56.69
59289;BME280;45056;47.602;9.886;2023-07-13T11:57:03;93264.59;;;21.63;56.45
59289;BME280;45056;47.602;9.886;2023-07-13T11:59:43;93265.38;;;21.75;55.72
59289;BME280;45056;47.602;9.886;2023-07-13T12:02:17;93269.63;;;21.76;55.13
59289;BME280;45056;47.602;9.886;2023-07-13T12:04:57;93266.09;;;21.75;54.94
59289;BME280;45056;47.602;9.886;2023-07-13T12:07:30;93263.34;;;21.75;54.54
59289;BME280;45056;47.602;9.886;2023-07-13T12:10:00;93268.38;;;21.71;53.90
59289;BME280;45056;47.602;9.886;2023-07-13T12:12:30;93262.09;;;21.65;53.97
59289;BME280;45056;47.602;9.886;2023-07-13T12:14:58;93257.56;;;21.62;54.37
59289;BME280;45056;47.602;9.886;2023-07-13T12:17:26;93259.59;;;21.67;54.65
59289;BME280;45056;47.602;9.886;2023-07-13T12:19:57;93258.56;;;21.76;54.71
59289;BME280;45056;47.602;9.886;2023-07-13T12:22:25;93260.03;;;21.88;54.91
59289;BME280;45056;47.602;9.886;2023-07-13T12:24:56;93250.66;;;22.09;54.73
59289;BME280;45056;47.602;9.886;2023-07-13T12:27:26;93262.69;;;22.23;54.44
59289;BME280;45056;47.602;9.886;2023-07-13T12:29:59;93256.34;;;22.33;53.53
59289;BME280;45056;47.602;9.886;2023-07-13T12:32:28;93247.47;;;22.41;53.12
59289;BME280;45056;47.602;9.886;2023-07-13T12:35:15;93257.53;;;22.44;52.74
59289;BME280;45056;47.602;9.886;2023-07-13T12:37:46;93257.31;;;22.42;52.82
59289;BME280;45056;47.602;9.886;2023-07-13T12:40:15;93252.28;;;22.40;53.34
59289;BME280;45056;47.602;9.886;2023-07-13T12:42:47;93252.53;;;22.37;53.69
59289;BME280;45056;47.602;9.886;2023-07-13T12:45:20;93253.81;;;22.36;53.78
59289;BME280;45056;47.602;9.886;2023-07-13T12:47:54;93252.53;;;22.37;53.99
59289;BME280;45056;47.602;9.886;2023-07-13T12:50:34;93245.50;;;22.36;53.89
59289;BME280;45056;47.602;9.886;2023-07-13T12:53:13;93240.91;;;22.44;55.22
59289;BME280;45056;47.602;9.886;2023-07-13T12:55:47;93254.03;;;22.49;55.01
59289;BME280;45056;47.602;9.886;2023-07-13T12:58:24;93258.03;;;22.54;54.92
59289;BME280;45056;47.602;9.886;2023-07-13T13:00:57;93257.75;;;22.63;54.52
59289;BME280;45056;47.602;9.886;2023-07-13T13:03:31;93252.44;;;22.65;53.75
59289;BME280;45056;47.602;9.886;2023-07-13T13:06:04;93253.19;;;22.60;53.37
59289;BME280;45056;47.602;9.886;2023-07-13T13:08:35;93250.97;;;22.53;53.57
59289;BME280;45056;47.602;9.886;2023-07-13T13:11:07;93247.97;;;22.51;52.96
59289;BME280;45056;47.602;9.886;2023-07-13T13:13:35;93247.94;;;22.56;54.29
59289;BME280;45056;47.602;9.886;2023-07-13T13:16:09;93258.41;;;22.75;53.75
59289;BME280;45056;47.602;9.886;2023-07-13T13:18:39;93246.72;;;22.88;53.54
59289;BME280;45056;47.602;9.886;2023-07-13T13:21:09;93250.72;;;22.92;51.97
59289;BME280;45056;47.602;9.886;2023-07-13T13:23:38;93255.03;;;22.88;51.16
59289;BME280;45056;47.602;9.886;2023-07-13T13:26:10;93255.09;;;22.82;51.51